Terminal Aerodrome Forecast
Issued by NWS North Platte, NE

Home | Current Version | Previous Version | Text Only | Print | Product List | Glossary On
Versions: 1 2 3 4 5 6 7 8 9 10 11 12 13 14 15 16 17 18 19 20 21 22 23
000
FTUS43 KLBF 291200 AAA
TAFLBF
TAF AMD
KLBF 291238Z 2913/3012 28015G22KT P6SM SKC
     FM291500 32024G37KT P6SM SKC
     FM292000 33014G24KT P6SM SKC
     FM292300 34011KT P6SM SKC
     FM300100 VRB06KT P6SM SKC=

USA.gov is the U.S. government's official web portal to all federal, state and local government web resources and services.